createdAt,value
2019-01-15T00:04:15.524Z,2.20
2019-01-15T00:09:24.885Z,1.90
2019-01-15T00:14:30.462Z,1.53
2019-01-15T00:19:37.040Z,1.40
2019-01-15T00:24:42.647Z,2.67
2019-01-15T00:29:48.253Z,2.77
2019-01-15T00:34:54.082Z,2.60
2019-01-15T00:39:59.661Z,1.80
2019-01-15T00:45:07.574Z,2.33
2019-01-15T00:50:15.096Z,2.07
2019-01-15T00:55:21.145Z,2.20
2019-01-15T01:00:26.996Z,1.70
2019-01-15T01:05:32.958Z,2.20
2019-01-15T01:10:38.554Z,2.20
2019-01-15T01:15:44.195Z,2.17
2019-01-15T01:20:49.791Z,1.70
2019-01-15T01:25:55.743Z,1.73
2019-01-15T01:31:01.335Z,2.50
2019-01-15T01:36:10.184Z,2.60
2019-01-15T01:41:15.744Z,2.20
2019-01-15T01:46:22.658Z,2.17
2019-01-15T01:51:28.336Z,2.30
2019-01-15T01:56:34.021Z,1.73
2019-01-15T02:01:39.641Z,1.90
2019-01-15T02:06:45.307Z,1.50
2019-01-15T02:11:54.599Z,1.73
2019-01-15T02:17:00.190Z,2.47
2019-01-15T02:22:07.502Z,2.07
2019-01-15T02:27:14.111Z,2.80
2019-01-15T02:32:19.682Z,2.67
2019-01-15T02:37:25.590Z,2.00
2019-01-15T02:42:31.195Z,1.90
2019-01-15T02:47:36.813Z,1.97
2019-01-15T02:52:42.394Z,2.50
2019-01-15T02:57:49.399Z,3.50
2019-01-15T03:02:55.045Z,2.00
2019-01-15T03:08:00.690Z,2.03
2019-01-15T03:13:06.593Z,1.90
2019-01-15T03:18:12.211Z,2.90
2019-01-15T03:23:17.936Z,2.00
2019-01-15T03:28:23.530Z,1.93
2019-01-15T03:33:29.200Z,2.10
2019-01-15T03:38:35.218Z,2.50
2019-01-15T03:43:40.837Z,3.10
2019-01-15T03:48:46.469Z,2.57
2019-01-15T03:53:52.073Z,2.77
2019-01-15T03:58:58.094Z,2.03
2019-01-15T04:04:03.755Z,2.03
2019-01-15T04:09:09.986Z,2.87
2019-01-15T04:14:15.989Z,2.40
2019-01-15T04:19:21.622Z,1.80
2019-01-15T04:24:27.210Z,3.30
2019-01-15T04:29:32.832Z,2.77
2019-01-15T04:34:38.430Z,2.27
2019-01-15T04:39:45.427Z,2.20
2019-01-15T04:44:50.985Z,1.83
2019-01-15T04:49:56.551Z,2.73
2019-01-15T04:55:02.220Z,4.20
2019-01-15T05:00:10.724Z,3.93
2019-01-15T05:05:16.695Z,2.50
2019-01-15T05:10:22.563Z,2.63
2019-01-15T05:15:28.463Z,3.20
2019-01-15T05:20:34.179Z,2.30
2019-01-15T05:25:39.915Z,3.00
2019-01-15T05:30:48.525Z,3.07
2019-01-15T05:35:54.550Z,2.87
2019-01-15T05:41:00.149Z,2.37
2019-01-15T05:46:07.627Z,2.27
2019-01-15T05:51:34.892Z,2.93
2019-01-15T05:56:40.701Z,3.70
2019-01-15T06:01:46.358Z,2.40
2019-01-15T06:06:51.951Z,5.63
2019-01-15T06:11:57.912Z,3.77
2019-01-15T06:17:03.900Z,3.20
2019-01-15T06:22:09.582Z,2.80
2019-01-15T06:32:19.734Z,2.40
2019-01-15T06:37:25.345Z,2.70
2019-01-15T06:42:32.236Z,2.80
2019-01-15T06:47:38.279Z,2.30
2019-01-15T06:52:44.544Z,2.67
2019-01-15T06:57:50.365Z,2.50
2019-01-15T07:02:56.402Z,2.70
2019-01-15T07:08:02.065Z,2.03
2019-01-15T07:13:07.742Z,3.33
2019-01-15T07:18:13.626Z,2.70
2019-01-15T07:23:19.226Z,2.00
2019-01-15T07:28:26.029Z,2.30
2019-01-15T07:33:32.745Z,2.30
2019-01-15T07:38:38.344Z,2.87
2019-01-15T07:43:43.954Z,2.23
2019-01-15T07:48:49.506Z,3.30
2019-01-15T07:53:55.085Z,1.83
2019-01-15T07:59:00.679Z,2.30
2019-01-15T08:04:06.804Z,1.80
2019-01-15T08:09:13.521Z,2.30
2019-01-15T08:14:19.176Z,2.20
2019-01-15T08:19:24.807Z,1.50
2019-01-15T08:24:31.687Z,2.00
2019-01-15T08:29:37.327Z,2.10
2019-01-15T08:34:43.034Z,2.10
2019-01-15T08:39:48.649Z,2.07
2019-01-15T08:44:54.432Z,1.93
2019-01-15T08:50:00.367Z,2.10
2019-01-15T08:55:06.523Z,3.10
2019-01-15T09:00:13.273Z,1.63
2019-01-15T09:05:18.913Z,1.43
2019-01-15T09:10:24.506Z,2.00
2019-01-15T09:15:30.078Z,2.13
2019-01-15T09:20:35.793Z,1.80
2019-01-15T09:25:41.383Z,2.60
2019-01-15T09:30:47.115Z,1.70
2019-01-15T09:35:53.228Z,1.97
2019-01-15T09:40:58.928Z,1.63
2019-01-15T09:46:07.606Z,1.83
2019-01-15T09:51:16.164Z,2.50
2019-01-15T09:56:21.737Z,2.00
2019-01-15T10:01:27.365Z,1.70
2019-01-15T10:06:33.315Z,2.20
2019-01-15T10:11:39.265Z,2.23
2019-01-15T10:16:45.011Z,2.10
2019-01-15T10:21:51.932Z,3.03
2019-01-15T10:26:58.233Z,3.43
2019-01-15T10:32:51.417Z,3.10
2019-01-15T10:37:57.080Z,3.23
2019-01-15T10:43:05.172Z,2.20
2019-01-15T10:48:10.839Z,3.00
2019-01-15T10:53:16.819Z,2.60
2019-01-15T10:58:22.416Z,2.60
2019-01-15T11:04:49.411Z,2.83
2019-01-15T11:09:55.113Z,2.77
2019-01-15T11:15:04.829Z,3.30
2019-01-15T11:20:12.718Z,3.50
2019-01-15T11:25:18.566Z,3.67
2019-01-15T11:30:24.216Z,3.53
2019-01-15T11:35:29.811Z,3.47
2019-01-15T11:40:35.444Z,3.47
2019-01-15T11:45:41.152Z,3.60
2019-01-15T11:50:46.823Z,3.23
2019-01-15T11:55:52.756Z,4.90
2019-01-15T12:01:11.555Z,3.23
2019-01-15T12:06:42.667Z,3.63
2019-01-15T12:12:00.952Z,4.00
2019-01-15T12:17:26.507Z,3.83
2019-01-15T12:22:57.440Z,4.43
2019-01-15T12:28:19.807Z,3.90
2019-01-15T12:34:02.525Z,4.33
2019-01-15T12:39:26.527Z,5.27
2019-01-15T12:44:50.122Z,7.00
2019-01-15T12:50:14.735Z,8.00
2019-01-15T12:55:39.245Z,6.57
2019-01-15T13:01:04.413Z,4.80
2019-01-15T13:06:44.015Z,4.03
2019-01-15T13:12:07.287Z,4.37
2019-01-15T13:17:30.252Z,6.60
2019-01-15T13:22:54.920Z,3.70
2019-01-15T13:28:12.608Z,4.03
2019-01-15T13:33:43.666Z,4.13
2019-01-15T13:39:04.715Z,4.50
2019-01-15T13:44:35.997Z,3.80
2019-01-15T13:49:59.090Z,4.47
2019-01-15T13:55:39.735Z,3.70
2019-01-15T14:00:55.479Z,4.33
2019-01-15T14:06:19.102Z,4.93
2019-01-15T14:11:42.065Z,4.33
2019-01-15T14:17:18.643Z,4.70
2019-01-15T14:22:55.734Z,4.20
2019-01-15T14:28:11.270Z,4.43
2019-01-15T14:33:47.824Z,4.77
2019-01-15T14:39:19.968Z,4.20
2019-01-15T14:44:59.813Z,3.77
2019-01-15T14:50:26.645Z,4.20
2019-01-15T14:55:54.027Z,3.87
2019-01-15T15:01:21.468Z,4.27
2019-01-15T15:07:02.935Z,4.07
2019-01-15T15:12:42.283Z,5.37
2019-01-15T15:18:09.617Z,4.67
2019-01-15T15:23:52.181Z,4.30
2019-01-15T15:29:16.757Z,3.97
2019-01-15T15:34:52.945Z,4.03
2019-01-15T15:40:30.017Z,5.07
2019-01-15T15:45:53.944Z,5.27
2019-01-15T15:51:08.335Z,4.63
2019-01-15T15:56:47.880Z,4.20
2019-01-15T16:02:11.780Z,4.30
2019-01-15T16:07:41.788Z,5.27
2019-01-15T16:13:04.898Z,4.10
2019-01-15T16:18:42.103Z,5.63
2019-01-15T16:24:17.109Z,4.60
2019-01-15T16:29:46.738Z,6.63
2019-01-15T16:35:29.691Z,5.53
2019-01-15T16:41:06.344Z,7.07
2019-01-15T16:46:30.955Z,5.40
2019-01-15T16:51:54.992Z,4.87
2019-01-15T16:57:18.361Z,4.67
2019-01-15T17:02:41.863Z,4.63
2019-01-15T17:08:06.990Z,4.60
2019-01-15T17:13:51.632Z,5.60
2019-01-15T17:19:32.097Z,5.90
2019-01-15T17:24:50.756Z,5.87
2019-01-15T17:30:15.986Z,5.23
2019-01-15T17:35:40.548Z,6.70
2019-01-15T17:41:06.166Z,4.83
2019-01-15T17:46:29.498Z,5.30
2019-01-15T17:51:54.060Z,4.90
2019-01-15T17:57:21.534Z,5.83
2019-01-15T18:02:52.513Z,5.43
2019-01-15T18:08:25.907Z,6.33
2019-01-15T18:13:49.461Z,6.30
2019-01-15T18:19:31.282Z,7.07
2019-01-15T18:24:55.150Z,6.13
2019-01-15T18:30:18.851Z,6.83
2019-01-15T18:35:46.898Z,6.40
2019-01-15T18:41:26.915Z,7.43
2019-01-15T18:46:55.786Z,7.00
2019-01-15T18:52:20.513Z,6.50
2019-01-15T18:57:44.681Z,7.60
2019-01-15T19:03:25.632Z,7.23
2019-01-15T19:08:50.250Z,6.60
2019-01-15T19:14:18.621Z,7.00
2019-01-15T19:19:55.676Z,7.10
2019-01-15T19:25:20.346Z,7.67
2019-01-15T19:30:48.461Z,6.90
2019-01-15T19:36:29.197Z,6.20
2019-01-15T19:41:58.082Z,6.77
2019-01-15T19:47:23.043Z,7.20
2019-01-15T19:52:39.731Z,6.80
2019-01-15T19:58:18.011Z,5.80
2019-01-15T20:04:01.715Z,7.20
2019-01-15T20:09:31.328Z,5.83
2019-01-15T20:14:54.285Z,6.23
2019-01-15T20:20:43.320Z,6.90
2019-01-15T20:26:01.337Z,6.00
2019-01-15T20:31:30.017Z,5.30
2019-01-15T20:37:06.144Z,5.40
2019-01-15T20:42:33.132Z,5.20
2019-01-15T20:48:00.471Z,5.90
2019-01-15T20:53:25.204Z,5.50
2019-01-15T20:58:50.059Z,5.10
2019-01-15T21:04:23.721Z,4.60
2019-01-15T21:10:07.720Z,4.33
2019-01-15T21:15:36.005Z,5.13
2019-01-15T21:21:06.897Z,5.37
2019-01-15T21:26:39.862Z,5.20
2019-01-15T21:32:04.507Z,4.33
2019-01-15T21:37:30.322Z,5.43
2019-01-15T21:42:53.601Z,5.07
2019-01-15T21:48:25.980Z,4.80
2019-01-15T21:53:52.356Z,3.53
2019-01-15T21:59:17.487Z,3.70
2019-01-15T22:04:36.751Z,4.33
2019-01-15T22:10:07.631Z,3.87
2019-01-15T22:15:33.575Z,3.20
2019-01-15T22:21:06.437Z,4.10
2019-01-15T22:26:46.224Z,3.90
2019-01-15T22:32:16.569Z,3.80
2019-01-15T22:37:48.224Z,2.97
2019-01-15T22:43:10.760Z,3.47
2019-01-15T22:48:41.319Z,4.20
2019-01-15T22:54:09.021Z,3.40
2019-01-15T22:59:48.824Z,3.70
2019-01-15T23:05:13.352Z,3.07
2019-01-15T23:10:44.035Z,2.97
2019-01-15T23:16:08.629Z,4.23
2019-01-15T23:21:32.135Z,3.40
2019-01-15T23:26:56.669Z,3.53
2019-01-15T23:32:12.483Z,3.77
2019-01-15T23:37:43.279Z,3.90
2019-01-15T23:43:10.803Z,3.23
2019-01-15T23:48:36.199Z,4.03
2019-01-15T23:54:35.878Z,3.80
2019-01-15T23:59:51.776Z,4.27
